Time;durP1;ratioP1;P1;durP2;ratioP2;P2;SDS_P1;SDS_P2;PMS_P1;PMS_P2;Temp;Humidity;BMP_temperature;BMP_pressure;BME280_temperature;BME280_humidity;BME280_pressure;Samples;Min_cycle;Max_cycle;Signal;HPM_P1;HPM_P2
2023/10/24 00:00:22;;;;;;;9.80;5.87;;;;;;;11.15;100.00;100064.63;4906342;29;20067;-95
2023/10/24 00:02:48;;;;;;;10.15;6.38;;;;;;;11.08;100.00;100066.63;4910983;29;20040;-95
2023/10/24 00:05:18;;;;;;;13.17;6.30;;;;;;;11.03;100.00;100064.66;4906484;29;20119;-96
2023/10/24 00:07:50;;;;;;;11.10;5.68;;;;;;;11.01;100.00;100061.34;4887778;29;20112;-96
2023/10/24 00:10:19;;;;;;;10.55;6.13;;;;;;;10.96;100.00;100055.78;4901940;29;20036;-96
2023/10/24 00:12:45;;;;;;;10.70;5.73;;;;;;;10.99;100.00;100066.19;4901977;29;20067;-95
2023/10/24 00:15:13;;;;;;;7.80;5.80;;;;;;;11.03;100.00;100063.84;4901945;29;20029;-96
2023/10/24 00:17:41;;;;;;;9.82;5.45;;;;;;;11.05;100.00;100056.25;4894860;29;20374;-96
2023/10/24 00:20:10;;;;;;;10.93;6.37;;;;;;;11.06;100.00;100057.94;4900907;29;20080;-96
2023/10/24 00:22:43;;;;;;;9.93;5.68;;;;;;;11.09;100.00;100056.59;4896780;29;20043;-96
2023/10/24 00:25:09;;;;;;;12.02;6.15;;;;;;;11.10;100.00;100052.81;4902073;29;20078;-96
2023/10/24 00:27:44;;;;;;;12.07;6.18;;;;;;;11.13;100.00;100064.06;4904731;29;20047;-96
2023/10/24 00:33:20;;;;;;;11.82;5.93;;;;;;;11.12;100.00;100054.25;4932325;29;20032;-96
2023/10/24 00:36:11;;;;;;;13.68;6.13;;;;;;;11.11;100.00;100059.91;4931210;29;20043;-96
2023/10/24 00:38:44;;;;;;;11.90;5.38;;;;;;;11.08;100.00;100054.97;4913402;29;20044;-96
2023/10/24 00:41:38;;;;;;;7.60;5.60;;;;;;;11.08;100.00;100050.34;4937933;29;20035;-96
2023/10/24 00:44:31;;;;;;;;;;;;;;;;;;;;;
2023/10/24 00:47:00;;;;;;;10.40;4.97;;;;;;;11.05;100.00;100058.97;4936789;29;20059;-96
2023/10/24 00:49:42;;;;;;;9.35;4.63;;;;;;;11.08;100.00;100057.69;4934542;29;20071;-96
2023/10/24 00:52:28;;;;;;;10.52;4.63;;;;;;;11.05;100.00;100059.78;4920389;29;20036;-96
2023/10/24 00:55:08;;;;;;;5.65;4.50;;;;;;;11.05;100.00;100064.41;4914993;29;20032;-96
2023/10/24 00:57:54;;;;;;;8.30;4.83;;;;;;;11.01;100.00;100055.94;4938050;29;20020;-96
2023/10/24 01:00:44;;;;;;;6.88;4.07;;;;;;;11.02;100.00;100064.88;4937164;29;20989;-96
2023/10/24 01:03:28;;;;;;;;;;;;;;;;;;;;;
2023/10/24 01:06:00;;;;;;;8.20;4.30;;;;;;;11.04;100.00;100071.75;4911127;29;20043;-96
2023/10/24 01:11:19;;;;;;;5.83;3.97;;;;;;;11.01;100.00;100064.06;4939147;23;20115;-95
2023/10/24 01:13:45;;;;;;;6.53;3.05;;;;;;;10.98;100.00;100056.38;4894915;29;20040;-95
2023/10/24 01:16:11;;;;;;;4.47;3.00;;;;;;;11.05;100.00;100053.53;4908219;29;20034;-95
2023/10/24 01:18:40;;;;;;;5.05;2.95;;;;;;;11.03;100.00;100053.78;4908499;29;20396;-95
2023/10/24 01:21:08;;;;;;;5.83;3.10;;;;;;;11.03;100.00;100058.41;4922931;29;20126;-95
2023/10/24 01:23:37;;;;;;;4.45;3.28;;;;;;;11.02;100.00;100060.28;4913060;29;20031;-96
2023/10/24 01:26:13;;;;;;;8.90;3.40;;;;;;;10.99;100.00;100055.31;4913817;29;20036;-96
2023/10/24 01:28:53;;;;;;;7.13;2.95;;;;;;;10.96;100.00;100049.56;4923889;29;20032;-96
2023/10/24 01:31:31;;;;;;;;;;;;;;;;;;;;;
2023/10/24 01:34:35;;;;;;;5.03;3.27;;;;;;;10.94;100.00;100060.66;4941793;29;20059;-96
2023/10/24 01:37:28;;;;;;;3.90;2.80;;;;;;;10.92;100.00;100059.22;4931805;29;20046;-96
2023/10/24 01:40:03;;;;;;;4.90;2.92;;;;;;;10.91;100.00;100063.00;4905852;29;20018;-96
2023/10/24 01:42:38;;;;;;;4.88;2.83;;;;;;;10.92;100.00;100065.47;4928058;29;20038;-96
2023/10/24 01:45:19;;;;;;;6.15;2.70;;;;;;;10.87;100.00;100057.22;4910958;29;20099;-96
2023/10/24 01:48:11;;;;;;;3.93;2.87;;;;;;;10.84;100.00;100055.00;4909929;29;20192;-96
2023/10/24 01:51:11;;;;;;;4.45;3.00;;;;;;;10.88;100.00;100046.13;4912694;29;20060;-96
2023/10/24 01:53:58;;;;;;;;;;;;;;;;;;;;;
2023/10/24 01:56:36;;;;;;;4.25;2.80;;;;;;;10.85;100.00;100046.59;4929746;29;20067;-96
2023/10/24 01:59:11;;;;;;;4.82;3.03;;;;;;;10.85;100.00;100057.47;4893185;29;20012;-96
2023/10/24 02:01:38;;;;;;;3.50;2.70;;;;;;;10.86;100.00;100055.56;4895295;29;20461;-96
2023/10/24 02:04:06;;;;;;;8.73;3.03;;;;;;;10.82;100.00;100047.09;4907471;29;20524;-95
2023/10/24 02:06:32;;;;;;;9.02;3.35;;;;;;;10.83;100.00;100051.44;4907647;29;20044;-95
2023/10/24 02:08:57;;;;;;;4.17;3.10;;;;;;;10.82;100.00;100049.81;4906284;29;20494;-95
2023/10/24 02:11:54;;;;;;;6.72;2.85;;;;;;;10.80;100.00;100053.81;4898905;29;20061;-96
2023/10/24 02:14:36;;;;;;;4.32;2.88;;;;;;;10.78;100.00;100048.63;4912880;23;20104;-96
2023/10/24 02:17:35;;;;;;;4.78;3.35;;;;;;;10.77;100.00;100049.66;4883029;29;20021;-96
2023/10/24 02:23:09;;;;;;;5.45;3.08;;;;;;;10.77;100.00;100046.13;4897478;29;20040;-96
2023/10/24 02:26:25;;;;;;;;;;;;;;;;;;;;;
2023/10/24 02:29:20;;;;;;;6.40;3.05;;;;;;;10.69;100.00;100040.00;4941383;29;20055;-96
2023/10/24 02:31:48;;;;;;;3.92;3.00;;;;;;;10.67;100.00;100046.72;4882501;24;20106;-96
2023/10/24 02:37:22;;;;;;;3.28;2.20;;;;;;;10.63;100.00;100059.94;4905446;29;20048;-96
2023/10/24 02:40:00;;;;;;;;;;;;;;;;;;;;;
2023/10/24 02:42:39;;;;;;;3.83;2.28;;;;;;;10.61;100.00;100063.94;4900896;29;20071;-96
2023/10/24 02:45:26;;;;;;;3.95;2.70;;;;;;;10.57;100.00;100063.59;4884968;29;20032;-96
2023/10/24 02:47:55;;;;;;;7.20;2.17;;;;;;;10.55;100.00;100065.69;4867696;29;20044;-96
2023/10/24 02:50:35;;;;;;;3.63;2.83;;;;;;;10.62;100.00;100079.16;4880630;29;20049;-96
2023/10/24 02:53:14;;;;;;;4.68;3.00;;;;;;;10.58;100.00;100073.38;4850699;29;20057;-96
2023/10/24 02:55:48;;;;;;;3.72;2.75;;;;;;;10.56;100.00;100072.78;4879471;29;20073;-96
2023/10/24 02:58:56;;;;;;;3.25;2.67;;;;;;;10.52;100.00;100069.69;4895392;29;20068;-96
2023/10/24 03:01:35;;;;;;;4.18;3.13;;;;;;;10.56;100.00;100077.41;4864266;29;20043;-96
2023/10/24 03:04:04;;;;;;;4.22;3.03;;;;;;;10.55;100.00;100078.44;4890797;29;20060;-96
2023/10/24 03:06:40;;;;;;;4.97;3.20;;;;;;;10.52;100.00;100077.03;4879562;29;20025;-96
2023/10/24 03:09:28;;;;;;;3.90;2.90;;;;;;;10.49;100.00;100085.63;4864046;29;20038;-96
2023/10/24 03:11:56;;;;;;;3.97;3.20;;;;;;;10.48;100.00;100086.69;4864085;29;20065;-96
2023/10/24 03:14:33;;;;;;;6.90;4.07;;;;;;;10.47;100.00;100082.34;4875034;29;20076;-96
2023/10/24 03:17:19;;;;;;;5.35;3.78;;;;;;;10.45;100.00;100093.41;4875184;29;20037;-96
2023/10/24 03:19:50;;;;;;;6.07;3.78;;;;;;;10.48;100.00;100083.97;4883034;29;20395;-96
2023/10/24 03:25:27;;;;;;;4.65;3.30;;;;;;;10.45;100.00;100084.44;4893537;29;20033;-96
2023/10/24 03:28:06;;;;;;;6.20;3.45;;;;;;;10.46;100.00;100086.91;4884485;29;20045;-96
2023/10/24 03:30:32;;;;;;;4.43;3.70;;;;;;;10.44;100.00;100080.91;4869139;29;20044;-96
2023/10/24 03:32:59;;;;;;;4.00;3.57;;;;;;;10.44;100.00;100082.81;4878638;29;20052;-96
2023/10/24 03:35:25;;;;;;;5.40;3.50;;;;;;;10.43;100.00;100083.84;4851541;29;20037;-96
2023/10/24 03:37:54;;;;;;;3.77;3.03;;;;;;;10.43;100.00;100079.25;4866908;29;20032;-96
2023/10/24 03:40:21;;;;;;;5.63;3.40;;;;;;;10.42;100.00;100084.91;4883087;29;20068;-96
2023/10/24 03:42:51;;;;;;;5.72;3.75;;;;;;;10.43;100.00;100086.56;4865657;29;20040;-96
2023/10/24 03:45:32;;;;;;;8.05;4.03;;;;;;;10.44;100.00;100083.63;4876771;29;20040;-96
2023/10/24 03:48:31;;;;;;;5.18;4.20;;;;;;;10.42;100.00;100074.88;4853318;29;20040;-96
2023/10/24 03:55:08;;;;;;;;;;;;;;;;;;;;;
2023/10/24 03:58:21;;;;;;;;;;;;;;;;;;;;;
2023/10/24 04:00:59;;;;;;;8.32;3.63;;;;;;;10.42;100.00;100090.31;4895188;29;20088;-96
2023/10/24 04:03:27;;;;;;;4.22;3.40;;;;;;;10.39;100.00;100091.59;4877626;29;20041;-96
2023/10/24 04:05:55;;;;;;;4.00;3.17;;;;;;;10.39;100.00;100093.50;4886663;29;20041;-96
2023/10/24 04:08:29;;;;;;;6.15;3.25;;;;;;;10.38;100.00;100084.56;4865261;29;20055;-96
2023/10/24 04:10:55;;;;;;;5.60;3.38;;;;;;;10.41;100.00;100096.78;4867052;29;20033;-96
2023/10/24 04:13:21;;;;;;;4.70;3.37;;;;;;;10.38;100.00;100087.25;4868173;29;20032;-96
2023/10/24 04:15:58;;;;;;;4.78;2.95;;;;;;;10.41;100.00;100094.09;4869833;29;20025;-96
2023/10/24 04:18:34;;;;;;;6.82;3.40;;;;;;;10.39;100.00;100088.91;4888421;29;20035;-96
2023/10/24 04:21:15;;;;;;;4.25;3.47;;;;;;;10.41;100.00;100080.53;4891309;29;20064;-96
2023/10/24 04:23:58;;;;;;;4.28;3.60;;;;;;;10.38;100.00;100072.88;4878632;29;20069;-96
2023/10/24 04:26:34;;;;;;;4.55;3.60;;;;;;;10.35;100.00;100063.34;4887023;29;20040;-96
2023/10/24 04:29:30;;;;;;;4.43;3.20;;;;;;;10.34;100.00;100067.91;4876751;29;20060;-96
2023/10/24 04:32:15;;;;;;;3.95;3.38;;;;;;;10.34;100.00;100051.63;4873489;29;20148;-96
2023/10/24 04:34:51;;;;;;;3.97;2.95;;;;;;;10.36;100.00;100059.53;4875163;29;20383;-96
2023/10/24 04:37:22;;;;;;;5.47;3.20;;;;;;;10.34;100.00;100054.34;4881711;29;20052;-96
2023/10/24 04:39:48;;;;;;;4.20;3.50;;;;;;;10.33;100.00;100050.00;4863049;29;20050;-96
2023/10/24 04:42:16;;;;;;;3.67;3.28;;;;;;;10.31;100.00;100043.13;4873045;29;20036;-96
2023/10/24 04:44:55;;;;;;;3.60;2.70;;;;;;;10.31;100.00;100052.06;4860709;29;20140;-96
2023/10/24 04:47:39;;;;;;;5.25;3.70;;;;;;;10.31;100.00;100056.69;4883314;29;20046;-96
2023/10/24 04:50:26;;;;;;;5.35;3.90;;;;;;;10.34;100.00;100058.97;4882789;29;20044;-96
2023/10/24 04:52:52;;;;;;;4.70;3.47;;;;;;;10.32;100.00;100055.63;4870370;29;20118;-96
2023/10/24 04:55:18;;;;;;;5.88;3.20;;;;;;;10.31;100.00;100056.69;4873918;29;20096;-96
2023/10/24 04:57:46;;;;;;;6.70;3.88;;;;;;;10.29;100.00;100064.22;4890857;29;20064;-96
2023/10/24 05:00:12;;;;;;;4.00;3.50;;;;;;;10.27;100.00;100056.31;4883222;29;20092;-96
2023/10/24 05:02:45;;;;;;;4.53;3.80;;;;;;;10.29;100.00;100059.63;4877633;29;20025;-96
2023/10/24 05:05:13;;;;;;;4.00;3.60;;;;;;;10.26;100.00;100061.97;4877357;29;20048;-96
2023/10/24 05:07:38;;;;;;;3.78;3.13;;;;;;;10.28;100.00;100079.66;4879918;29;20036;-96
2023/10/24 05:10:09;;;;;;;4.40;3.80;;;;;;;10.27;100.00;100055.50;4878987;29;20085;-96
2023/10/24 05:12:38;;;;;;;3.97;3.55;;;;;;;10.27;100.00;100061.72;4861218;29;20124;-96
2023/10/24 05:15:07;;;;;;;5.70;3.33;;;;;;;10.26;100.00;100056.53;4867365;29;20097;-96
2023/10/24 05:17:33;;;;;;;3.95;3.38;;;;;;;10.25;100.00;100063.84;4859931;29;20103;-96
2023/10/24 05:20:03;;;;;;;5.70;3.50;;;;;;;10.27;100.00;100071.75;4880801;29;20437;-96
2023/10/24 05:22:37;;;;;;;7.00;3.05;;;;;;;10.24;100.00;100058.66;4870205;29;20040;-96
2023/10/24 05:25:02;;;;;;;3.50;3.20;;;;;;;10.24;100.00;100062.19;4853374;29;20056;-96
2023/10/24 05:27:31;;;;;;;4.70;2.93;;;;;;;10.23;100.00;100068.69;4883784;29;20021;-96
2023/10/24 05:30:12;;;;;;;;;;;;;;;;;;;;;
2023/10/24 05:32:59;;;;;;;4.18;3.55;;;;;;;10.25;100.00;100057.63;4886763;29;20173;-96
2023/10/24 05:35:35;;;;;;;6.25;3.20;;;;;;;10.23;100.00;100041.59;5015028;23;20506;-96
2023/10/24 05:38:04;;;;;;;3.83;2.97;;;;;;;10.23;100.00;100043.44;4864061;29;20029;-96
2023/10/24 05:40:32;;;;;;;7.50;3.20;;;;;;;10.24;100.00;100042.41;4871299;29;20033;-96
2023/10/24 05:45:45;;;;;;;4.32;3.00;;;;;;;10.22;100.00;100041.81;4875298;29;20049;-94
2023/10/24 05:48:31;;;;;;;;;;;;;;;;;;;;;
2023/10/24 05:51:01;;;;;;;3.65;2.60;;;;;;;10.21;100.00;100053.72;4915571;24;20056;-96
2023/10/24 05:53:32;;;;;;;3.80;2.60;;;;;;;10.21;100.00;100059.94;4891989;29;20586;-95
2023/10/24 05:56:00;;;;;;;3.75;2.83;;;;;;;10.22;100.00;100056.19;4904972;29;20034;-92
2023/10/24 05:58:26;;;;;;;3.17;2.30;;;;;;;10.22;100.00;100058.09;4921173;29;20036;-95
2023/10/24 06:00:52;;;;;;;3.50;2.60;;;;;;;10.17;100.00;100062.31;4907199;29;20063;-95
2023/10/24 06:03:20;;;;;;;3.08;2.47;;;;;;;10.17;100.00;100062.31;4903379;29;20087;-93
2023/10/24 06:05:49;;;;;;;3.55;2.13;;;;;;;10.13;100.00;100071.16;4891948;29;20051;-94
2023/10/24 06:10:56;;;;;;;3.72;2.30;;;;;;;10.16;100.00;100074.19;4846552;23;20076;-94
2023/10/24 06:13:22;;;;;;;4.88;2.67;;;;;;;10.17;100.00;100077.72;4885185;29;20040;-95
2023/10/24 06:15:48;;;;;;;2.80;2.53;;;;;;;10.19;100.00;100059.38;4885384;29;20188;-94
2023/10/24 06:18:23;;;;;;;4.10;2.70;;;;;;;10.20;100.00;100069.13;4882407;29;20033;-95
2023/10/24 06:20:48;;;;;;;3.92;2.30;;;;;;;10.18;100.00;100044.97;4855801;29;20041;-94
2023/10/24 06:23:14;;;;;;;2.67;2.28;;;;;;;10.19;100.00;100045.81;4882517;29;20492;-94
2023/10/24 06:25:41;;;;;;;3.57;2.77;;;;;;;10.19;100.00;100046.63;4885652;29;20132;-95
2023/10/24 06:28:09;;;;;;;3.20;2.50;;;;;;;10.19;100.00;100043.91;4884954;29;20035;-95
2023/10/24 06:30:36;;;;;;;4.53;2.70;;;;;;;10.18;100.00;100052.28;4884922;29;20032;-94
2023/10/24 06:33:02;;;;;;;3.33;2.63;;;;;;;10.16;100.00;100066.06;4877011;29;20043;-93
2023/10/24 06:35:27;;;;;;;4.05;2.78;;;;;;;10.19;100.00;100062.91;4892599;29;20033;-94
2023/10/24 06:37:55;;;;;;;4.60;2.78;;;;;;;10.19;100.00;100073.75;4884610;29;20061;-94
2023/10/24 06:40:30;;;;;;;4.40;2.65;;;;;;;10.21;100.00;100078.94;4884648;29;20038;-94
2023/10/24 06:43:05;;;;;;;3.70;2.40;;;;;;;10.24;100.00;100099.34;4885019;29;20087;-95
2023/10/24 06:45:35;;;;;;;4.22;2.90;;;;;;;10.27;100.00;100096.16;4884721;29;20040;-94
2023/10/24 06:48:03;;;;;;;4.00;3.05;;;;;;;10.26;100.00;100097.22;4870031;29;20041;-94
2023/10/24 06:50:33;;;;;;;6.45;3.05;;;;;;;10.27;100.00;100090.72;4879466;29;20060;-94
2023/10/24 06:52:59;;;;;;;4.97;3.22;;;;;;;10.35;100.00;100075.00;4854064;29;20040;-94
2023/10/24 06:55:24;;;;;;;4.77;3.10;;;;;;;10.36;100.00;100075.81;4882225;29;20028;-93
2023/10/24 06:57:58;;;;;;;6.67;3.10;;;;;;;10.29;100.00;100070.47;4859309;29;20033;-95
2023/10/24 07:00:25;;;;;;;7.10;3.40;;;;;;;10.29;100.00;100075.91;4869351;29;20292;-94
2023/10/24 07:02:51;;;;;;;6.20;3.40;;;;;;;10.33;100.00;100074.41;4884652;29;20037;-94
2023/10/24 07:05:19;;;;;;;4.57;3.58;;;;;;;10.31;100.00;100076.47;4884707;29;20057;-94
2023/10/24 07:07:49;;;;;;;5.80;3.13;;;;;;;10.32;100.00;100063.75;4884657;29;20513;-94
2023/10/24 07:10:17;;;;;;;6.70;3.90;;;;;;;10.33;100.00;100058.13;4899823;29;20076;-94
2023/10/24 07:12:42;;;;;;;6.15;3.83;;;;;;;10.33;100.00;100059.97;4874414;29;20080;-93
2023/10/24 07:15:11;;;;;;;7.60;3.83;;;;;;;10.38;100.00;100056.59;4884969;29;20459;-95
2023/10/24 07:17:39;;;;;;;7.00;4.05;;;;;;;10.38;100.00;100065.56;4884378;29;20056;-94
2023/10/24 07:20:09;;;;;;;5.90;4.40;;;;;;;10.41;100.00;100053.41;4883386;29;20066;-95
2023/10/24 07:22:35;;;;;;;7.72;4.30;;;;;;;10.42;100.00;100061.31;4884386;29;20041;-95
2023/10/24 07:25:01;;;;;;;6.17;3.83;;;;;;;10.47;100.00;100066.06;4883913;29;20052;-94
2023/10/24 07:27:26;;;;;;;6.18;4.20;;;;;;;10.49;100.00;100062.03;4884194;29;20153;-95
2023/10/24 07:29:52;;;;;;;7.97;3.80;;;;;;;10.59;100.00;100068.78;4883266;29;20156;-95
2023/10/24 07:32:17;;;;;;;8.50;4.38;;;;;;;10.57;100.00;100079.03;4883660;29;20529;-95
2023/10/24 07:34:43;;;;;;;6.50;4.10;;;;;;;10.61;100.00;100077.50;4883018;29;20032;-94
2023/10/24 07:37:11;;;;;;;9.33;4.50;;;;;;;10.66;100.00;100064.06;4885169;29;20515;-95
2023/10/24 07:39:37;;;;;;;5.35;4.43;;;;;;;10.73;100.00;100063.94;4868115;29;20044;-95
2023/10/24 07:42:03;;;;;;;6.72;4.25;;;;;;;10.78;100.00;100067.59;4883327;29;20024;-95
2023/10/24 07:44:31;;;;;;;5.55;4.38;;;;;;;10.78;100.00;100064.91;4883675;29;20032;-94
2023/10/24 07:47:02;;;;;;;9.50;4.93;;;;;;;10.83;100.00;100065.00;4883553;29;20037;-95
2023/10/24 07:49:28;;;;;;;5.95;4.55;;;;;;;10.87;100.00;100059.94;4883505;29;20124;-94
2023/10/24 07:51:54;;;;;;;8.37;4.40;;;;;;;10.91;100.00;100063.84;4912425;29;20043;-95
2023/10/24 07:54:19;;;;;;;7.55;4.53;;;;;;;10.91;100.00;100066.56;4912431;29;20104;-95
2023/10/24 07:56:47;;;;;;;7.50;4.70;;;;;;;10.92;100.00;100059.22;4883384;29;20088;-95
2023/10/24 07:59:13;;;;;;;8.98;4.53;;;;;;;10.92;100.00;100064.66;4865029;29;20127;-94
2023/10/24 08:01:41;;;;;;;9.83;4.60;;;;;;;10.89;100.00;100055.09;4877896;29;20043;-95
2023/10/24 08:04:06;;;;;;;7.00;4.97;;;;;;;10.91;100.00;100063.84;4882753;29;20367;-95
2023/10/24 08:06:34;;;;;;;8.63;4.93;;;;;;;10.87;100.00;100054.50;4870975;29;20041;-95
2023/10/24 08:09:01;;;;;;;9.73;4.45;;;;;;;10.89;100.00;100057.81;4883360;29;20052;-95
2023/10/24 08:11:28;;;;;;;10.13;5.20;;;;;;;10.95;100.00;100059.56;4882245;29;20132;-95
2023/10/24 08:13:59;;;;;;;5.68;4.70;;;;;;;11.10;100.00;100069.13;4867476;29;20040;-95
2023/10/24 08:16:25;;;;;;;6.63;4.80;;;;;;;11.21;100.00;100068.28;4882881;29;20032;-94
2023/10/24 08:18:50;;;;;;;5.93;4.23;;;;;;;11.31;100.00;100064.94;4882725;29;20111;-95
2023/10/24 08:21:24;;;;;;;5.88;4.30;;;;;;;11.43;100.00;100054.06;4882610;29;20119;-95
2023/10/24 08:23:52;;;;;;;5.22;4.28;;;;;;;11.59;100.00;100065.00;4882704;29;20032;-95
2023/10/24 08:26:17;;;;;;;7.03;3.83;;;;;;;11.72;100.00;100057.63;4882562;29;20031;-95
2023/10/24 08:28:45;;;;;;;6.10;3.90;;;;;;;11.73;100.00;100065.53;4883101;29;20032;-95
2023/10/24 08:31:13;;;;;;;8.95;4.35;;;;;;;11.73;100.00;100062.81;4882510;29;20029;-95
2023/10/24 08:33:39;;;;;;;7.15;3.80;;;;;;;11.75;100.00;100070.72;4881210;29;20040;-94
2023/10/24 08:36:05;;;;;;;6.43;3.40;;;;;;;11.74;100.00;100090.84;4896905;29;20036;-95
2023/10/24 08:38:30;;;;;;;5.30;3.25;;;;;;;11.73;100.00;100083.75;4898274;29;20115;-95
2023/10/24 08:40:56;;;;;;;4.63;3.63;;;;;;;11.73;100.00;100100.84;4882230;29;20104;-95
2023/10/24 08:43:32;;;;;;;4.00;3.28;;;;;;;11.74;100.00;100094.38;4867570;29;20047;-95
2023/10/24 08:46:05;;;;;;;5.35;3.17;;;;;;;11.91;100.00;100102.59;4882212;29;20035;-95
2023/10/24 08:48:35;;;;;;;5.53;3.17;;;;;;;12.07;100.00;100095.56;4882600;29;20059;-95
2023/10/24 08:51:03;;;;;;;5.40;3.70;;;;;;;12.12;100.00;100083.97;4882718;29;20024;-95
2023/10/24 08:53:28;;;;;;;4.13;3.00;;;;;;;12.10;100.00;100100.50;4867148;29;20040;-95
2023/10/24 08:55:57;;;;;;;4.75;3.08;;;;;;;12.03;100.00;100080.81;4882769;29;20518;-95
2023/10/24 08:58:23;;;;;;;5.73;3.17;;;;;;;12.02;100.00;100083.78;4882839;29;20115;-95
2023/10/24 09:01:06;;;;;;;4.38;3.33;;;;;;;12.08;100.00;100080.09;4882221;29;20037;-94
2023/10/24 09:03:39;;;;;;;5.30;2.95;;;;;;;12.00;100.00;100083.19;4882236;29;20036;-95
2023/10/24 09:06:09;;;;;;;5.43;3.90;;;;;;;12.00;100.00;100080.47;4882651;29;20394;-95
2023/10/24 09:08:39;;;;;;;9.10;4.78;;;;;;;12.03;100.00;100067.22;4883074;29;20100;-94
2023/10/24 09:11:08;;;;;;;6.37;4.63;;;;;;;12.03;100.00;100072.66;4882193;29;20048;-95
2023/10/24 09:13:34;;;;;;;6.00;5.40;;;;;;;12.03;100.00;100078.09;4882077;29;20080;-95
2023/10/24 09:16:13;;;;;;;9.10;6.00;;;;;;;12.05;100.00;100066.97;4882099;29;20033;-95
2023/10/24 09:18:40;;;;;;;10.37;5.80;;;;;;;12.09;100.00;100063.53;4882266;29;20124;-95
2023/10/24 09:21:09;;;;;;;9.25;6.72;;;;;;;12.20;100.00;100063.72;4866519;29;20041;-95
2023/10/24 09:23:36;;;;;;;11.02;6.68;;;;;;;12.32;100.00;100063.63;4882575;29;20493;-95
2023/10/24 09:26:06;;;;;;;9.40;7.30;;;;;;;12.34;100.00;100054.16;4882149;29;20032;-95
2023/10/24 09:28:35;;;;;;;10.30;6.32;;;;;;;12.46;100.00;100046.75;4882149;29;20040;-95
2023/10/24 09:31:01;;;;;;;7.97;5.95;;;;;;;12.61;100.00;100039.91;4881862;29;20040;-95
2023/10/24 09:33:30;;;;;;;8.88;6.28;;;;;;;12.79;100.00;100055.13;4882425;29;20516;-95
2023/10/24 09:35:58;;;;;;;6.88;5.90;;;;;;;12.94;100.00;100044.44;4881211;29;20033;-95
2023/10/24 09:38:24;;;;;;;7.60;5.85;;;;;;;13.15;100.00;100056.47;4882101;29;20025;-96
2023/10/24 09:40:53;;;;;;;7.55;4.82;;;;;;;13.24;100.00;100072.34;4882221;29;20055;-95
2023/10/24 09:43:21;;;;;;;6.77;4.70;;;;;;;13.27;100.00;100074.56;4885164;29;20039;-95
2023/10/24 09:45:51;;;;;;;7.07;4.50;;;;;;;13.21;100.00;100065.50;4885656;29;20040;-95
2023/10/24 09:48:26;;;;;;;8.70;4.65;;;;;;;13.20;100.00;100066.59;4885788;29;20058;-95
2023/10/24 09:50:53;;;;;;;7.28;4.20;;;;;;;13.12;100.00;100053.41;4885610;29;20032;-95
2023/10/24 09:53:23;;;;;;;5.32;3.75;;;;;;;12.99;100.00;100040.97;4885683;29;20036;-95
2023/10/24 09:55:59;;;;;;;7.43;4.00;;;;;;;13.06;100.00;100043.53;4897938;29;20024;-95
2023/10/24 09:58:41;;;;;;;5.38;3.50;;;;;;;13.09;100.00;100040.28;4885555;29;20025;-95
2023/10/24 10:01:20;;;;;;;4.22;3.20;;;;;;;12.98;100.00;100040.16;4885330;29;20036;-95
2023/10/24 10:03:46;;;;;;;6.65;3.28;;;;;;;12.93;100.00;100042.81;4900614;29;20488;-95
2023/10/24 10:06:16;;;;;;;5.47;3.50;;;;;;;12.93;100.00;100045.53;4894182;29;20036;-95
2023/10/24 10:08:44;;;;;;;5.63;3.20;;;;;;;12.96;100.00;100052.38;4885014;29;20036;-95
2023/10/24 10:11:10;;;;;;;5.50;3.35;;;;;;;12.92;100.00;100052.06;4885105;29;20056;-95
2023/10/24 10:13:42;;;;;;;6.78;3.15;;;;;;;12.84;100.00;100048.94;4884665;29;20502;-95
2023/10/24 10:16:44;;;;;;;4.63;3.50;;;;;;;12.68;100.00;100056.88;4885463;29;20119;-95
2023/10/24 10:20:10;;;;;;;7.00;3.45;;;;;;;12.70;100.00;100065.63;4876227;29;20037;-94
2023/10/24 10:23:03;;;;;;;5.97;3.37;;;;;;;12.50;100.00;100078.88;4853471;29;20056;-93
2023/10/24 10:25:51;;;;;;;5.22;3.40;;;;;;;12.45;100.00;100079.63;4873756;29;20035;-95
2023/10/24 10:28:47;;;;;;;8.68;4.10;;;;;;;12.36;100.00;100062.09;4882564;29;20036;-93
2023/10/24 10:31:39;;;;;;;8.20;3.75;;;;;;;12.28;100.00;100060.56;4899433;29;20620;-93
2023/10/24 10:34:08;;;;;;;4.63;3.63;;;;;;;12.22;100.00;100056.13;4884230;29;20040;-93
2023/10/24 10:36:34;;;;;;;4.43;3.37;;;;;;;12.21;100.00;100059.91;4884399;29;20462;-93
2023/10/24 10:39:10;;;;;;;;;;;;;;;;;;;;;
2023/10/24 10:41:40;;;;;;;4.93;3.57;;;;;;;12.03;100.00;100053.63;4900155;29;20028;-93
2023/10/24 10:44:51;;;;;;;6.43;3.80;;;;;;;11.87;100.00;100047.06;4884087;29;20032;-92
2023/10/24 10:47:27;;;;;;;6.18;3.90;;;;;;;11.55;100.00;100061.09;4884129;29;20032;-94
2023/10/24 10:49:56;;;;;;;9.98;4.70;;;;;;;11.35;100.00;100044.41;4866628;29;20040;-94
2023/10/24 10:52:55;;;;;;;8.73;5.10;;;;;;;11.17;100.00;100043.47;4880678;29;20056;-94
2023/10/24 10:55:38;;;;;;;9.73;5.00;;;;;;;11.01;100.00;100050.50;4883686;29;20029;-93
2023/10/24 10:58:30;;;;;;;11.43;5.40;;;;;;;10.95;100.00;100053.31;4897399;29;20033;-92
2023/10/24 11:01:08;;;;;;;11.35;5.35;;;;;;;10.92;100.00;100049.19;4883693;29;20490;-92
2023/10/24 11:03:44;;;;;;;11.07;5.53;;;;;;;10.80;100.00;100049.19;4883888;29;20095;-94
2023/10/24 11:06:17;;;;;;;10.60;6.30;;;;;;;10.75;100.00;100050.97;4879323;29;20040;-94
2023/10/24 11:08:48;;;;;;;9.97;6.10;;;;;;;10.73;100.00;100058.50;4883929;29;20036;-92
2023/10/24 11:11:18;;;;;;;12.00;6.70;;;;;;;10.73;100.00;100062.03;4883397;29;20052;-93
2023/10/24 11:13:48;;;;;;;12.13;6.88;;;;;;;10.77;100.00;100062.41;4883584;29;20474;-93
2023/10/24 11:16:17;;;;;;;10.07;6.95;;;;;;;10.79;100.00;100071.97;4883511;29;20037;-92
2023/10/24 11:18:42;;;;;;;8.18;6.35;;;;;;;10.74;100.00;100066.41;4883948;29;20134;-95
2023/10/24 11:21:17;;;;;;;9.40;5.93;;;;;;;10.71;100.00;100059.56;4882779;29;20052;-93
2023/10/24 11:23:47;;;;;;;11.27;6.15;;;;;;;10.64;100.00;100063.47;4884838;29;20044;-93
2023/10/24 11:26:13;;;;;;;9.30;6.28;;;;;;;10.61;100.00;100063.94;4899052;29;20024;-93
2023/10/24 11:28:42;;;;;;;9.77;5.93;;;;;;;10.55;100.00;100056.75;4900870;29;20037;-93
2023/10/24 11:31:24;;;;;;;10.93;5.65;;;;;;;10.50;100.00;100052.03;4873795;29;20033;-93
2023/10/24 11:33:49;;;;;;;8.85;6.15;;;;;;;10.47;100.00;100047.06;4897016;29;20091;-93
2023/10/24 11:36:19;;;;;;;9.67;6.10;;;;;;;10.44;100.00;100056.50;4883890;29;20032;-93
2023/10/24 11:38:51;;;;;;;10.30;5.97;;;;;;;10.41;100.00;100062.38;4867613;29;20033;-93
2023/10/24 11:41:17;;;;;;;7.15;5.30;;;;;;;10.34;100.00;100058.97;4900048;29;20044;-94
2023/10/24 11:43:45;;;;;;;11.70;5.27;;;;;;;10.27;100.00;100044.66;4883360;29;20071;-94
2023/10/24 11:46:33;;;;;;;7.63;5.10;;;;;;;10.26;100.00;100042.97;4883374;29;20043;-93
2023/10/24 11:49:01;;;;;;;8.05;4.97;;;;;;;10.24;100.00;100037.78;4873314;29;20497;-94
2023/10/24 11:51:29;;;;;;;7.38;5.40;;;;;;;10.21;100.00;100042.88;4874153;29;20039;-94
2023/10/24 11:54:03;;;;;;;7.72;4.75;;;;;;;10.14;100.00;100038.38;4879860;29;20127;-93
2023/10/24 11:56:30;;;;;;;6.73;4.90;;;;;;;10.10;100.00;100028.25;4882919;29;20180;-93
2023/10/24 11:59:03;;;;;;;10.60;4.65;;;;;;;10.12;100.00;100013.38;4899529;29;20127;-93
2023/10/24 12:01:36;;;;;;;9.77;5.20;;;;;;;10.09;100.00;100021.97;4883247;29;20385;-93
2023/10/24 12:04:04;;;;;;;7.32;4.68;;;;;;;10.08;100.00;100017.59;4866399;29;20032;-93
2023/10/24 12:06:34;;;;;;;10.93;5.05;;;;;;;10.08;100.00;100011.38;4882472;29;20131;-93
2023/10/24 12:09:02;;;;;;;9.87;3.70;;;;;;;10.04;100.00;100010.19;4883233;29;20072;-93
2023/10/24 12:11:31;;;;;;;8.35;4.60;;;;;;;10.04;100.00;100012.88;4882378;29;20036;-93
2023/10/24 12:13:56;;;;;;;9.25;5.55;;;;;;;10.09;100.00;100011.13;4882910;29;20380;-92
2023/10/24 12:16:31;;;;;;;8.43;4.77;;;;;;;10.14;100.00;100011.28;4883870;29;20033;-93
2023/10/24 12:18:57;;;;;;;8.13;5.22;;;;;;;10.15;100.00;100006.66;4868246;29;20046;-92
2023/10/24 12:21:26;;;;;;;8.88;5.22;;;;;;;10.21;100.00;99996.78;4882831;29;20025;-92
2023/10/24 12:23:51;;;;;;;8.47;5.07;;;;;;;10.21;100.00;99999.50;4882848;29;20545;-92